sensor_id;sensor_type;location;lat;lon;timestamp;P1;durP1;ratioP1;P2;durP2;ratioP2
39994;SDS011;25686;51.908;10.418;2024-03-08T00:00:22;51.17;;;26.60;;
39994;SDS011;25686;51.908;10.418;2024-03-08T00:02:23;52.70;;;27.17;;
39994;SDS011;25686;51.908;10.418;2024-03-08T00:04:24;50.30;;;26.17;;
39994;SDS011;25686;51.908;10.418;2024-03-08T00:06:25;48.00;;;25.63;;
39994;SDS011;25686;51.908;10.418;2024-03-08T00:08:26;52.33;;;26.47;;
39994;SDS011;25686;51.908;10.418;2024-03-08T00:10:27;49.33;;;26.40;;
39994;SDS011;25686;51.908;10.418;2024-03-08T00:12:31;53.53;;;26.13;;
39994;SDS011;25686;51.908;10.418;2024-03-08T00:14:32;47.03;;;25.07;;
39994;SDS011;25686;51.908;10.418;2024-03-08T00:16:33;45.53;;;25.43;;
39994;SDS011;25686;51.908;10.418;2024-03-08T00:18:35;52.17;;;25.90;;
39994;SDS011;25686;51.908;10.418;2024-03-08T00:20:36;48.90;;;25.43;;
39994;SDS011;25686;51.908;10.418;2024-03-08T00:22:37;50.30;;;26.80;;
39994;SDS011;25686;51.908;10.418;2024-03-08T00:24:38;48.30;;;25.27;;
39994;SDS011;25686;51.908;10.418;2024-03-08T00:26:40;50.80;;;25.77;;
39994;SDS011;25686;51.908;10.418;2024-03-08T00:28:42;50.63;;;27.53;;
39994;SDS011;25686;51.908;10.418;2024-03-08T00:30:43;53.03;;;26.57;;
39994;SDS011;25686;51.908;10.418;2024-03-08T00:32:45;56.00;;;26.20;;
39994;SDS011;25686;51.908;10.418;2024-03-08T00:34:46;50.27;;;26.57;;
39994;SDS011;25686;51.908;10.418;2024-03-08T00:36:47;51.83;;;27.33;;
39994;SDS011;25686;51.908;10.418;2024-03-08T00:38:49;53.73;;;26.77;;
39994;SDS011;25686;51.908;10.418;2024-03-08T00:40:49;50.50;;;27.07;;
39994;SDS011;25686;51.908;10.418;2024-03-08T00:42:51;59.27;;;27.67;;
39994;SDS011;25686;51.908;10.418;2024-03-08T00:44:53;55.03;;;28.73;;
39994;SDS011;25686;51.908;10.418;2024-03-08T00:46:54;52.17;;;27.63;;
39994;SDS011;25686;51.908;10.418;2024-03-08T00:48:55;56.10;;;29.40;;
39994;SDS011;25686;51.908;10.418;2024-03-08T00:50:56;54.43;;;27.83;;
39994;SDS011;25686;51.908;10.418;2024-03-08T00:52:57;54.90;;;28.23;;
39994;SDS011;25686;51.908;10.418;2024-03-08T00:54:58;54.23;;;28.60;;
39994;SDS011;25686;51.908;10.418;2024-03-08T00:56:59;58.83;;;28.87;;
39994;SDS011;25686;51.908;10.418;2024-03-08T00:59:02;53.23;;;28.10;;
39994;SDS011;25686;51.908;10.418;2024-03-08T01:01:03;61.17;;;28.73;;
39994;SDS011;25686;51.908;10.418;2024-03-08T01:03:05;53.10;;;27.33;;
39994;SDS011;25686;51.908;10.418;2024-03-08T01:05:06;55.60;;;28.00;;
39994;SDS011;25686;51.908;10.418;2024-03-08T01:07:07;55.20;;;28.57;;
39994;SDS011;25686;51.908;10.418;2024-03-08T01:09:08;54.23;;;28.87;;
39994;SDS011;25686;51.908;10.418;2024-03-08T01:11:09;57.30;;;28.33;;
39994;SDS011;25686;51.908;10.418;2024-03-08T01:13:11;58.50;;;28.93;;
39994;SDS011;25686;51.908;10.418;2024-03-08T01:15:12;56.30;;;28.40;;
39994;SDS011;25686;51.908;10.418;2024-03-08T01:17:13;55.23;;;28.97;;
39994;SDS011;25686;51.908;10.418;2024-03-08T01:19:14;51.43;;;27.20;;
39994;SDS011;25686;51.908;10.418;2024-03-08T01:21:15;57.60;;;29.00;;
39994;SDS011;25686;51.908;10.418;2024-03-08T01:23:16;56.67;;;28.40;;
39994;SDS011;25686;51.908;10.418;2024-03-08T01:25:17;56.83;;;29.20;;
39994;SDS011;25686;51.908;10.418;2024-03-08T01:27:18;55.00;;;28.87;;
39994;SDS011;25686;51.908;10.418;2024-03-08T01:29:19;61.30;;;29.83;;
39994;SDS011;25686;51.908;10.418;2024-03-08T01:31:20;55.23;;;28.70;;
39994;SDS011;25686;51.908;10.418;2024-03-08T01:33:22;58.93;;;29.70;;
39994;SDS011;25686;51.908;10.418;2024-03-08T01:35:23;57.53;;;28.67;;
39994;SDS011;25686;51.908;10.418;2024-03-08T01:37:26;58.57;;;29.80;;
39994;SDS011;25686;51.908;10.418;2024-03-08T01:39:29;58.30;;;28.63;;
39994;SDS011;25686;51.908;10.418;2024-03-08T01:41:31;57.90;;;30.00;;
39994;SDS011;25686;51.908;10.418;2024-03-08T01:43:32;60.60;;;30.60;;
39994;SDS011;25686;51.908;10.418;2024-03-08T01:45:33;54.43;;;29.77;;
39994;SDS011;25686;51.908;10.418;2024-03-08T01:47:34;63.87;;;29.93;;
39994;SDS011;25686;51.908;10.418;2024-03-08T01:49:35;61.93;;;29.83;;
39994;SDS011;25686;51.908;10.418;2024-03-08T01:51:36;55.27;;;29.00;;
39994;SDS011;25686;51.908;10.418;2024-03-08T01:53:37;57.63;;;31.07;;
39994;SDS011;25686;51.908;10.418;2024-03-08T01:55:39;58.27;;;29.83;;
39994;SDS011;25686;51.908;10.418;2024-03-08T01:57:40;56.67;;;29.97;;
39994;SDS011;25686;51.908;10.418;2024-03-08T01:59:41;60.43;;;31.83;;
39994;SDS011;25686;51.908;10.418;2024-03-08T02:01:43;64.93;;;31.13;;
39994;SDS011;25686;51.908;10.418;2024-03-08T02:03:44;62.90;;;30.97;;
39994;SDS011;25686;51.908;10.418;2024-03-08T02:05:46;59.73;;;30.57;;
39994;SDS011;25686;51.908;10.418;2024-03-08T02:07:47;64.40;;;31.83;;
39994;SDS011;25686;51.908;10.418;2024-03-08T02:09:48;66.47;;;31.37;;
39994;SDS011;25686;51.908;10.418;2024-03-08T02:11:49;62.33;;;30.37;;
39994;SDS011;25686;51.908;10.418;2024-03-08T02:13:50;63.80;;;31.77;;
39994;SDS011;25686;51.908;10.418;2024-03-08T02:15:54;61.53;;;31.20;;
39994;SDS011;25686;51.908;10.418;2024-03-08T02:17:55;59.07;;;30.00;;
39994;SDS011;25686;51.908;10.418;2024-03-08T02:19:56;61.47;;;31.50;;
39994;SDS011;25686;51.908;10.418;2024-03-08T02:21:57;58.30;;;30.13;;
39994;SDS011;25686;51.908;10.418;2024-03-08T02:23:59;59.07;;;30.50;;
39994;SDS011;25686;51.908;10.418;2024-03-08T02:26:00;55.77;;;29.83;;
39994;SDS011;25686;51.908;10.418;2024-03-08T02:28:01;63.10;;;30.63;;
39994;SDS011;25686;51.908;10.418;2024-03-08T02:30:02;58.63;;;30.77;;
39994;SDS011;25686;51.908;10.418;2024-03-08T02:32:05;58.87;;;29.27;;
39994;SDS011;25686;51.908;10.418;2024-03-08T02:34:06;61.87;;;30.33;;
39994;SDS011;25686;51.908;10.418;2024-03-08T02:36:07;55.03;;;29.07;;
39994;SDS011;25686;51.908;10.418;2024-03-08T02:38:08;60.00;;;30.83;;
39994;SDS011;25686;51.908;10.418;2024-03-08T02:40:09;60.80;;;30.83;;
39994;SDS011;25686;51.908;10.418;2024-03-08T02:42:12;60.17;;;28.87;;
39994;SDS011;25686;51.908;10.418;2024-03-08T02:44:13;62.00;;;30.40;;
39994;SDS011;25686;51.908;10.418;2024-03-08T02:46:14;60.10;;;30.97;;
39994;SDS011;25686;51.908;10.418;2024-03-08T02:48:15;58.47;;;30.27;;
39994;SDS011;25686;51.908;10.418;2024-03-08T02:50:16;61.27;;;30.97;;
39994;SDS011;25686;51.908;10.418;2024-03-08T02:52:17;63.27;;;30.17;;
39994;SDS011;25686;51.908;10.418;2024-03-08T02:54:20;61.83;;;30.87;;
39994;SDS011;25686;51.908;10.418;2024-03-08T02:56:20;67.20;;;32.23;;
39994;SDS011;25686;51.908;10.418;2024-03-08T02:58:21;64.13;;;31.43;;
39994;SDS011;25686;51.908;10.418;2024-03-08T03:00:23;72.57;;;33.97;;
39994;SDS011;25686;51.908;10.418;2024-03-08T03:02:24;65.07;;;32.77;;
39994;SDS011;25686;51.908;10.418;2024-03-08T03:04:26;70.30;;;33.57;;
39994;SDS011;25686;51.908;10.418;2024-03-08T03:06:27;63.50;;;31.60;;
39994;SDS011;25686;51.908;10.418;2024-03-08T03:08:28;63.07;;;32.27;;
39994;SDS011;25686;51.908;10.418;2024-03-08T03:10:29;63.97;;;30.90;;
39994;SDS011;25686;51.908;10.418;2024-03-08T03:12:31;67.40;;;33.90;;
39994;SDS011;25686;51.908;10.418;2024-03-08T03:14:34;66.43;;;33.80;;
39994;SDS011;25686;51.908;10.418;2024-03-08T03:16:38;69.93;;;33.33;;
39994;SDS011;25686;51.908;10.418;2024-03-08T03:18:39;68.33;;;31.63;;
39994;SDS011;25686;51.908;10.418;2024-03-08T03:20:40;68.77;;;33.03;;
39994;SDS011;25686;51.908;10.418;2024-03-08T03:22:42;67.07;;;31.87;;
39994;SDS011;25686;51.908;10.418;2024-03-08T03:24:47;70.17;;;32.27;;
39994;SDS011;25686;51.908;10.418;2024-03-08T03:26:49;71.03;;;33.13;;
39994;SDS011;25686;51.908;10.418;2024-03-08T03:28:50;72.73;;;33.80;;
39994;SDS011;25686;51.908;10.418;2024-03-08T03:30:51;66.87;;;31.27;;
39994;SDS011;25686;51.908;10.418;2024-03-08T03:32:53;69.07;;;33.80;;
39994;SDS011;25686;51.908;10.418;2024-03-08T03:35:00;72.10;;;34.00;;
39994;SDS011;25686;51.908;10.418;2024-03-08T03:37:05;69.03;;;33.07;;
39994;SDS011;25686;51.908;10.418;2024-03-08T03:39:12;63.83;;;31.83;;
39994;SDS011;25686;51.908;10.418;2024-03-08T03:41:16;70.63;;;34.07;;
39994;SDS011;25686;51.908;10.418;2024-03-08T03:43:17;77.27;;;36.60;;
39994;SDS011;25686;51.908;10.418;2024-03-08T03:45:18;69.97;;;34.30;;
39994;SDS011;25686;51.908;10.418;2024-03-08T03:47:20;68.80;;;33.03;;
39994;SDS011;25686;51.908;10.418;2024-03-08T03:49:21;69.90;;;33.83;;
39994;SDS011;25686;51.908;10.418;2024-03-08T03:51:22;73.23;;;33.37;;
39994;SDS011;25686;51.908;10.418;2024-03-08T03:53:23;68.77;;;32.23;;
39994;SDS011;25686;51.908;10.418;2024-03-08T03:55:25;73.97;;;33.60;;
39994;SDS011;25686;51.908;10.418;2024-03-08T03:57:27;71.63;;;32.53;;
39994;SDS011;25686;51.908;10.418;2024-03-08T03:59:28;68.53;;;33.87;;
39994;SDS011;25686;51.908;10.418;2024-03-08T04:01:30;69.00;;;32.80;;
39994;SDS011;25686;51.908;10.418;2024-03-08T04:03:31;73.63;;;35.63;;
39994;SDS011;25686;51.908;10.418;2024-03-08T04:05:33;73.77;;;34.63;;
39994;SDS011;25686;51.908;10.418;2024-03-08T04:07:34;64.13;;;31.27;;
39994;SDS011;25686;51.908;10.418;2024-03-08T04:09:35;62.60;;;31.97;;
39994;SDS011;25686;51.908;10.418;2024-03-08T04:11:36;65.67;;;32.47;;
39994;SDS011;25686;51.908;10.418;2024-03-08T04:13:37;66.73;;;33.00;;
39994;SDS011;25686;51.908;10.418;2024-03-08T04:15:38;75.77;;;34.40;;
39994;SDS011;25686;51.908;10.418;2024-03-08T04:17:39;66.43;;;33.47;;
39994;SDS011;25686;51.908;10.418;2024-03-08T04:19:40;69.47;;;32.17;;
39994;SDS011;25686;51.908;10.418;2024-03-08T04:21:41;69.70;;;31.13;;
39994;SDS011;25686;51.908;10.418;2024-03-08T04:23:42;62.63;;;32.43;;
39994;SDS011;25686;51.908;10.418;2024-03-08T04:25:45;73.70;;;34.73;;
39994;SDS011;25686;51.908;10.418;2024-03-08T04:27:46;73.40;;;32.13;;
39994;SDS011;25686;51.908;10.418;2024-03-08T04:29:48;70.67;;;32.30;;
39994;SDS011;25686;51.908;10.418;2024-03-08T04:31:49;70.77;;;33.27;;
39994;SDS011;25686;51.908;10.418;2024-03-08T04:33:54;69.93;;;33.47;;
39994;SDS011;25686;51.908;10.418;2024-03-08T04:35:55;69.90;;;29.97;;
39994;SDS011;25686;51.908;10.418;2024-03-08T04:37:56;72.63;;;34.23;;
39994;SDS011;25686;51.908;10.418;2024-03-08T04:39:58;67.07;;;32.87;;
39994;SDS011;25686;51.908;10.418;2024-03-08T04:41:59;68.27;;;33.13;;
39994;SDS011;25686;51.908;10.418;2024-03-08T04:44:10;74.37;;;34.23;;
39994;SDS011;25686;51.908;10.418;2024-03-08T04:46:12;67.73;;;34.40;;
39994;SDS011;25686;51.908;10.418;2024-03-08T04:48:14;71.33;;;33.60;;
39994;SDS011;25686;51.908;10.418;2024-03-08T04:50:15;69.33;;;34.37;;
39994;SDS011;25686;51.908;10.418;2024-03-08T04:52:16;68.97;;;32.43;;
39994;SDS011;25686;51.908;10.418;2024-03-08T04:54:17;72.70;;;34.43;;
39994;SDS011;25686;51.908;10.418;2024-03-08T04:56:18;68.47;;;34.57;;
39994;SDS011;25686;51.908;10.418;2024-03-08T04:58:19;74.37;;;34.73;;
39994;SDS011;25686;51.908;10.418;2024-03-08T05:00:21;74.97;;;34.00;;
39994;SDS011;25686;51.908;10.418;2024-03-08T05:02:22;71.97;;;35.17;;
39994;SDS011;25686;51.908;10.418;2024-03-08T05:04:22;74.97;;;34.43;;
39994;SDS011;25686;51.908;10.418;2024-03-08T05:06:23;75.00;;;34.43;;
39994;SDS011;25686;51.908;10.418;2024-03-08T05:08:24;73.30;;;34.43;;
39994;SDS011;25686;51.908;10.418;2024-03-08T05:10:26;77.43;;;36.47;;
39994;SDS011;25686;51.908;10.418;2024-03-08T05:12:26;72.03;;;34.53;;
39994;SDS011;25686;51.908;10.418;2024-03-08T05:14:27;75.77;;;34.83;;
39994;SDS011;25686;51.908;10.418;2024-03-08T05:16:29;75.03;;;35.97;;
39994;SDS011;25686;51.908;10.418;2024-03-08T05:18:30;73.77;;;35.00;;
39994;SDS011;25686;51.908;10.418;2024-03-08T05:20:32;79.63;;;38.90;;
39994;SDS011;25686;51.908;10.418;2024-03-08T05:22:33;81.93;;;36.60;;
39994;SDS011;25686;51.908;10.418;2024-03-08T05:24:34;79.23;;;37.63;;
39994;SDS011;25686;51.908;10.418;2024-03-08T05:26:35;78.70;;;35.97;;
39994;SDS011;25686;51.908;10.418;2024-03-08T05:28:37;80.33;;;36.23;;
39994;SDS011;25686;51.908;10.418;2024-03-08T05:30:38;79.17;;;36.77;;
39994;SDS011;25686;51.908;10.418;2024-03-08T05:32:40;78.43;;;36.30;;
39994;SDS011;25686;51.908;10.418;2024-03-08T05:34:44;86.97;;;36.93;;
39994;SDS011;25686;51.908;10.418;2024-03-08T05:36:45;78.63;;;36.50;;
39994;SDS011;25686;51.908;10.418;2024-03-08T05:38:46;78.57;;;36.20;;
39994;SDS011;25686;51.908;10.418;2024-03-08T05:40:50;83.43;;;38.83;;
39994;SDS011;25686;51.908;10.418;2024-03-08T05:42:51;84.07;;;38.83;;
39994;SDS011;25686;51.908;10.418;2024-03-08T05:44:52;84.97;;;38.83;;
39994;SDS011;25686;51.908;10.418;2024-03-08T05:46:53;89.33;;;38.87;;
39994;SDS011;25686;51.908;10.418;2024-03-08T05:48:54;82.77;;;38.57;;
39994;SDS011;25686;51.908;10.418;2024-03-08T05:50:55;80.97;;;36.57;;
39994;SDS011;25686;51.908;10.418;2024-03-08T05:52:57;84.20;;;38.73;;
39994;SDS011;25686;51.908;10.418;2024-03-08T05:54:57;89.07;;;40.70;;
39994;SDS011;25686;51.908;10.418;2024-03-08T05:56:58;82.73;;;39.63;;
39994;SDS011;25686;51.908;10.418;2024-03-08T05:58:59;88.87;;;39.63;;
39994;SDS011;25686;51.908;10.418;2024-03-08T06:01:01;79.77;;;37.57;;
39994;SDS011;25686;51.908;10.418;2024-03-08T06:03:02;80.83;;;37.13;;
39994;SDS011;25686;51.908;10.418;2024-03-08T06:05:03;83.43;;;38.70;;
39994;SDS011;25686;51.908;10.418;2024-03-08T06:07:04;84.07;;;38.00;;
39994;SDS011;25686;51.908;10.418;2024-03-08T06:09:05;85.10;;;37.93;;
39994;SDS011;25686;51.908;10.418;2024-03-08T06:11:11;75.07;;;37.33;;
39994;SDS011;25686;51.908;10.418;2024-03-08T06:13:12;79.03;;;36.97;;
39994;SDS011;25686;51.908;10.418;2024-03-08T06:15:13;86.17;;;37.77;;
39994;SDS011;25686;51.908;10.418;2024-03-08T06:17:14;79.87;;;37.17;;
39994;SDS011;25686;51.908;10.418;2024-03-08T06:19:15;76.80;;;36.73;;
39994;SDS011;25686;51.908;10.418;2024-03-08T06:21:16;78.57;;;36.70;;
39994;SDS011;25686;51.908;10.418;2024-03-08T06:23:17;70.83;;;35.40;;
39994;SDS011;25686;51.908;10.418;2024-03-08T06:25:18;70.27;;;33.90;;
39994;SDS011;25686;51.908;10.418;2024-03-08T06:27:21;66.00;;;33.57;;
39994;SDS011;25686;51.908;10.418;2024-03-08T06:29:21;66.70;;;33.53;;
39994;SDS011;25686;51.908;10.418;2024-03-08T06:31:23;64.37;;;33.30;;
39994;SDS011;25686;51.908;10.418;2024-03-08T06:33:24;64.10;;;33.80;;
39994;SDS011;25686;51.908;10.418;2024-03-08T06:35:28;68.33;;;34.77;;
39994;SDS011;25686;51.908;10.418;2024-03-08T06:37:32;57.63;;;30.63;;
39994;SDS011;25686;51.908;10.418;2024-03-08T06:39:33;59.23;;;30.17;;
39994;SDS011;25686;51.908;10.418;2024-03-08T06:41:36;58.43;;;29.57;;
39994;SDS011;25686;51.908;10.418;2024-03-08T06:43:37;54.93;;;29.70;;
39994;SDS011;25686;51.908;10.418;2024-03-08T06:45:39;62.27;;;30.90;;
39994;SDS011;25686;51.908;10.418;2024-03-08T06:47:40;53.27;;;28.77;;
39994;SDS011;25686;51.908;10.418;2024-03-08T06:49:42;56.53;;;29.97;;
39994;SDS011;25686;51.908;10.418;2024-03-08T06:51:46;57.47;;;31.17;;
39994;SDS011;25686;51.908;10.418;2024-03-08T06:53:47;58.83;;;30.93;;
39994;SDS011;25686;51.908;10.418;2024-03-08T06:55:49;53.47;;;29.33;;
39994;SDS011;25686;51.908;10.418;2024-03-08T06:57:50;53.57;;;29.57;;
39994;SDS011;25686;51.908;10.418;2024-03-08T06:59:51;59.73;;;30.63;;
39994;SDS011;25686;51.908;10.418;2024-03-08T07:01:52;55.00;;;29.40;;
39994;SDS011;25686;51.908;10.418;2024-03-08T07:03:54;60.50;;;30.40;;
39994;SDS011;25686;51.908;10.418;2024-03-08T07:05:56;54.20;;;28.03;;
39994;SDS011;25686;51.908;10.418;2024-03-08T07:07:58;52.07;;;28.43;;
39994;SDS011;25686;51.908;10.418;2024-03-08T07:09:59;53.83;;;27.80;;
39994;SDS011;25686;51.908;10.418;2024-03-08T07:12:00;48.47;;;27.97;;
39994;SDS011;25686;51.908;10.418;2024-03-08T07:14:01;45.47;;;27.33;;
39994;SDS011;25686;51.908;10.418;2024-03-08T07:16:05;50.10;;;26.88;;
39994;SDS011;25686;51.908;10.418;2024-03-08T07:18:07;48.90;;;26.48;;
39994;SDS011;25686;51.908;10.418;2024-03-08T07:20:09;46.47;;;26.70;;
39994;SDS011;25686;51.908;10.418;2024-03-08T07:22:12;49.35;;;28.00;;
39994;SDS011;25686;51.908;10.418;2024-03-08T07:24:13;47.75;;;27.10;;
39994;SDS011;25686;51.908;10.418;2024-03-08T07:26:17;51.28;;;28.13;;
39994;SDS011;25686;51.908;10.418;2024-03-08T07:28:19;50.90;;;28.77;;
39994;SDS011;25686;51.908;10.418;2024-03-08T07:30:23;45.70;;;27.55;;
39994;SDS011;25686;51.908;10.418;2024-03-08T07:32:43;44.55;;;27.65;;
39994;SDS011;25686;51.908;10.418;2024-03-08T07:34:44;49.40;;;29.25;;
39994;SDS011;25686;51.908;10.418;2024-03-08T07:36:45;44.33;;;27.20;;
39994;SDS011;25686;51.908;10.418;2024-03-08T07:38:45;49.40;;;28.40;;
39994;SDS011;25686;51.908;10.418;2024-03-08T07:40:46;46.17;;;27.60;;
39994;SDS011;25686;51.908;10.418;2024-03-08T07:42:48;45.45;;;27.55;;
39994;SDS011;25686;51.908;10.418;2024-03-08T07:44:49;46.13;;;26.63;;
39994;SDS011;25686;51.908;10.418;2024-03-08T07:46:50;45.47;;;26.98;;
39994;SDS011;25686;51.908;10.418;2024-03-08T07:48:51;44.03;;;25.60;;
39994;SDS011;25686;51.908;10.418;2024-03-08T07:50:53;45.63;;;26.30;;
39994;SDS011;25686;51.908;10.418;2024-03-08T07:52:54;38.17;;;25.15;;
39994;SDS011;25686;51.908;10.418;2024-03-08T07:54:55;42.92;;;24.67;;
39994;SDS011;25686;51.908;10.418;2024-03-08T07:56:56;41.38;;;25.00;;
39994;SDS011;25686;51.908;10.418;2024-03-08T07:58:57;39.03;;;25.55;;
39994;SDS011;25686;51.908;10.418;2024-03-08T08:00:58;42.50;;;26.25;;
39994;SDS011;25686;51.908;10.418;2024-03-08T08:02:59;38.75;;;24.00;;
39994;SDS011;25686;51.908;10.418;2024-03-08T08:05:01;35.35;;;22.88;;
39994;SDS011;25686;51.908;10.418;2024-03-08T08:07:03;37.55;;;24.35;;
39994;SDS011;25686;51.908;10.418;2024-03-08T08:09:04;37.67;;;25.55;;
39994;SDS011;25686;51.908;10.418;2024-03-08T08:11:06;36.33;;;24.70;;
39994;SDS011;25686;51.908;10.418;2024-03-08T08:13:08;36.22;;;25.33;;
39994;SDS011;25686;51.908;10.418;2024-03-08T08:15:09;36.80;;;25.27;;
39994;SDS011;25686;51.908;10.418;2024-03-08T08:17:10;36.83;;;25.17;;
39994;SDS011;25686;51.908;10.418;2024-03-08T08:19:12;36.65;;;25.00;;
39994;SDS011;25686;51.908;10.418;2024-03-08T08:21:13;34.30;;;24.40;;
39994;SDS011;25686;51.908;10.418;2024-03-08T08:23:14;36.15;;;25.70;;
39994;SDS011;25686;51.908;10.418;2024-03-08T08:25:15;35.90;;;25.63;;
39994;SDS011;25686;51.908;10.418;2024-03-08T08:27:20;33.42;;;24.92;;
39994;SDS011;25686;51.908;10.418;2024-03-08T08:29:21;33.05;;;24.65;;
39994;SDS011;25686;51.908;10.418;2024-03-08T08:31:23;35.65;;;26.38;;
39994;SDS011;25686;51.908;10.418;2024-03-08T08:33:24;36.15;;;25.95;;
39994;SDS011;25686;51.908;10.418;2024-03-08T08:35:25;35.20;;;25.88;;
39994;SDS011;25686;51.908;10.418;2024-03-08T08:37:26;34.00;;;26.00;;
39994;SDS011;25686;51.908;10.418;2024-03-08T08:39:28;32.95;;;26.08;;
39994;SDS011;25686;51.908;10.418;2024-03-08T08:41:29;33.20;;;26.35;;
39994;SDS011;25686;51.908;10.418;2024-03-08T08:43:31;33.75;;;26.33;;
39994;SDS011;25686;51.908;10.418;2024-03-08T08:45:33;34.88;;;26.77;;
39994;SDS011;25686;51.908;10.418;2024-03-08T08:47:37;37.72;;;26.40;;
39994;SDS011;25686;51.908;10.418;2024-03-08T08:49:38;35.17;;;26.40;;
39994;SDS011;25686;51.908;10.418;2024-03-08T08:51:40;34.35;;;25.50;;
39994;SDS011;25686;51.908;10.418;2024-03-08T08:53:41;35.97;;;27.23;;
39994;SDS011;25686;51.908;10.418;2024-03-08T08:55:43;35.60;;;26.17;;
39994;SDS011;25686;51.908;10.418;2024-03-08T08:57:45;35.08;;;26.23;;
39994;SDS011;25686;51.908;10.418;2024-03-08T08:59:47;33.78;;;25.17;;
39994;SDS011;25686;51.908;10.418;2024-03-08T09:01:48;36.33;;;26.05;;
39994;SDS011;25686;51.908;10.418;2024-03-08T09:03:50;34.25;;;24.92;;
39994;SDS011;25686;51.908;10.418;2024-03-08T09:05:52;33.08;;;25.65;;
39994;SDS011;25686;51.908;10.418;2024-03-08T09:07:53;33.90;;;26.05;;
39994;SDS011;25686;51.908;10.418;2024-03-08T09:09:54;35.55;;;24.88;;
39994;SDS011;25686;51.908;10.418;2024-03-08T09:11:58;32.47;;;24.35;;
39994;SDS011;25686;51.908;10.418;2024-03-08T09:13:58;35.78;;;25.52;;
39994;SDS011;25686;51.908;10.418;2024-03-08T09:16:01;29.42;;;24.25;;
39994;SDS011;25686;51.908;10.418;2024-03-08T09:18:02;31.38;;;25.75;;
39994;SDS011;25686;51.908;10.418;2024-03-08T09:20:09;32.00;;;24.73;;
39994;SDS011;25686;51.908;10.418;2024-03-08T09:22:10;35.53;;;25.90;;
39994;SDS011;25686;51.908;10.418;2024-03-08T09:24:11;31.38;;;24.77;;
39994;SDS011;25686;51.908;10.418;2024-03-08T09:26:12;29.85;;;24.33;;
39994;SDS011;25686;51.908;10.418;2024-03-08T09:28:15;30.38;;;24.55;;
39994;SDS011;25686;51.908;10.418;2024-03-08T09:30:16;30.38;;;24.80;;
39994;SDS011;25686;51.908;10.418;2024-03-08T09:32:18;28.90;;;25.35;;
39994;SDS011;25686;51.908;10.418;2024-03-08T09:34:19;28.80;;;24.35;;
39994;SDS011;25686;51.908;10.418;2024-03-08T09:36:20;28.23;;;25.00;;
39994;SDS011;25686;51.908;10.418;2024-03-08T09:38:21;30.83;;;25.02;;
39994;SDS011;25686;51.908;10.418;2024-03-08T09:40:22;31.30;;;24.92;;
39994;SDS011;25686;51.908;10.418;2024-03-08T09:42:25;30.08;;;23.25;;
39994;SDS011;25686;51.908;10.418;2024-03-08T09:44:26;29.80;;;25.10;;
39994;SDS011;25686;51.908;10.418;2024-03-08T09:46:28;34.22;;;25.70;;
39994;SDS011;25686;51.908;10.418;2024-03-08T09:48:30;32.78;;;24.65;;
39994;SDS011;25686;51.908;10.418;2024-03-08T09:50:31;29.65;;;23.48;;
39994;SDS011;25686;51.908;10.418;2024-03-08T09:52:32;32.00;;;24.50;;
39994;SDS011;25686;51.908;10.418;2024-03-08T09:54:34;28.30;;;23.35;;
39994;SDS011;25686;51.908;10.418;2024-03-08T09:56:35;30.10;;;24.65;;
39994;SDS011;25686;51.908;10.418;2024-03-08T09:58:36;33.75;;;26.63;;
39994;SDS011;25686;51.908;10.418;2024-03-08T10:00:52;32.35;;;27.27;;
39994;SDS011;25686;51.908;10.418;2024-03-08T10:02:53;34.33;;;25.80;;
39994;SDS011;25686;51.908;10.418;2024-03-08T10:04:54;29.30;;;25.00;;
39994;SDS011;25686;51.908;10.418;2024-03-08T10:06:55;31.63;;;24.73;;
39994;SDS011;25686;51.908;10.418;2024-03-08T10:08:57;31.85;;;25.95;;
39994;SDS011;25686;51.908;10.418;2024-03-08T10:10:58;32.13;;;24.95;;
39994;SDS011;25686;51.908;10.418;2024-03-08T10:12:58;31.30;;;24.50;;
39994;SDS011;25686;51.908;10.418;2024-03-08T10:15:00;30.25;;;24.50;;
39994;SDS011;25686;51.908;10.418;2024-03-08T10:17:01;32.45;;;25.75;;
39994;SDS011;25686;51.908;10.418;2024-03-08T10:19:02;29.73;;;25.05;;
39994;SDS011;25686;51.908;10.418;2024-03-08T10:21:07;29.10;;;24.02;;
39994;SDS011;25686;51.908;10.418;2024-03-08T10:23:10;31.73;;;25.98;;
39994;SDS011;25686;51.908;10.418;2024-03-08T10:25:11;32.35;;;27.05;;
39994;SDS011;25686;51.908;10.418;2024-03-08T10:27:12;33.08;;;26.85;;
39994;SDS011;25686;51.908;10.418;2024-03-08T10:29:13;36.83;;;27.60;;
39994;SDS011;25686;51.908;10.418;2024-03-08T10:31:17;34.08;;;27.50;;
39994;SDS011;25686;51.908;10.418;2024-03-08T10:33:19;35.53;;;26.63;;
39994;SDS011;25686;51.908;10.418;2024-03-08T10:35:20;31.45;;;25.90;;
39994;SDS011;25686;51.908;10.418;2024-03-08T10:37:22;32.72;;;25.80;;
39994;SDS011;25686;51.908;10.418;2024-03-08T10:39:24;32.20;;;25.45;;
39994;SDS011;25686;51.908;10.418;2024-03-08T10:41:25;31.92;;;26.73;;
39994;SDS011;25686;51.908;10.418;2024-03-08T10:43:28;29.95;;;25.75;;
39994;SDS011;25686;51.908;10.418;2024-03-08T10:45:39;32.38;;;26.10;;
39994;SDS011;25686;51.908;10.418;2024-03-08T10:47:43;31.90;;;27.23;;
39994;SDS011;25686;51.908;10.418;2024-03-08T10:49:51;34.25;;;27.52;;
39994;SDS011;25686;51.908;10.418;2024-03-08T10:51:53;30.50;;;26.88;;
39994;SDS011;25686;51.908;10.418;2024-03-08T10:53:54;31.35;;;25.30;;
39994;SDS011;25686;51.908;10.418;2024-03-08T10:55:56;32.75;;;27.30;;
39994;SDS011;25686;51.908;10.418;2024-03-08T10:57:58;38.05;;;28.77;;
39994;SDS011;25686;51.908;10.418;2024-03-08T10:59:58;36.20;;;28.73;;
39994;SDS011;25686;51.908;10.418;2024-03-08T11:02:00;35.10;;;28.55;;
39994;SDS011;25686;51.908;10.418;2024-03-08T11:04:03;37.33;;;29.98;;
39994;SDS011;25686;51.908;10.418;2024-03-08T11:06:04;39.63;;;29.15;;
39994;SDS011;25686;51.908;10.418;2024-03-08T11:10:19;37.50;;;29.70;;
39994;SDS011;25686;51.908;10.418;2024-03-08T11:12:27;34.40;;;26.77;;
39994;SDS011;25686;51.908;10.418;2024-03-08T11:14:45;36.65;;;28.33;;
39994;SDS011;25686;51.908;10.418;2024-03-08T11:16:48;38.38;;;27.95;;
39994;SDS011;25686;51.908;10.418;2024-03-08T11:18:49;37.53;;;29.52;;
39994;SDS011;25686;51.908;10.418;2024-03-08T11:20:53;40.58;;;29.73;;
39994;SDS011;25686;51.908;10.418;2024-03-08T11:23:03;38.80;;;29.50;;
39994;SDS011;25686;51.908;10.418;2024-03-08T11:25:05;43.67;;;29.55;;
39994;SDS011;25686;51.908;10.418;2024-03-08T11:27:09;41.20;;;29.13;;
39994;SDS011;25686;51.908;10.418;2024-03-08T11:31:31;42.05;;;28.27;;
39994;SDS011;25686;51.908;10.418;2024-03-08T11:33:34;42.15;;;29.70;;
39994;SDS011;25686;51.908;10.418;2024-03-08T11:35:35;49.40;;;30.92;;
39994;SDS011;25686;51.908;10.418;2024-03-08T11:37:37;45.58;;;30.60;;
39994;SDS011;25686;51.908;10.418;2024-03-08T11:39:53;50.08;;;28.67;;
39994;SDS011;25686;51.908;10.418;2024-03-08T11:42:04;46.83;;;27.80;;
39994;SDS011;25686;51.908;10.418;2024-03-08T11:44:05;44.72;;;29.95;;
39994;SDS011;25686;51.908;10.418;2024-03-08T11:46:07;47.95;;;26.92;;